Share

Nespelem, WA (99155)

Omak (KOMK) Elev 1302 ft | 48.46 °N, 119.52 °W | Change Station

Current weather conditions updated 43 minutes ago

Clear
Clear
54 °F
Feels Like 54 °F
N
15
Wind Variable Wind from SSW
Sunrise 6:01 AM
Sunset 7:52 PM
Moon Waning Gibbous

Today is forecast to be Cooler than yesterday.

Pressure 29.84 in
Visibility 10.0 miles
Clouds Clear
Dew Point 22 °F
Humidity 29%
Rainfall 0.00 in
Snow Depth 19 in
UV 4 out of 16
Pollen 8.60 out of 12
Air Quality Not available.
Flu Activity Sporadic
METAR KOMK 181653Z AUTO 20013KT 10SM CLR 12/M06 A2984 RMK AO2 SLP105 T01221056

More Conditions Fewer Conditions

Pressure 29.84 in
Visibility 10.0 miles
Clouds Clear
Dew Point 22 °F
Humidity 29%
Rainfall 0.00 in
Snow Depth 19 in
UV 4 out of 16
Pollen 8.60 out of 12
Air Quality Not available.
Flu Activity Sporadic
METAR KOMK 181653Z AUTO 20013KT 10SM CLR 12/M06 A2984 RMK AO2 SLP105 T01221056

More Conditions Fewer Conditions

10-Day Weather Forecast

Almanac

Astronomy

Apr. 18, 2014 Rise Set
Actual Time 6:01 AM PDT 7:52 PM PDT
Civil Twilight 5:28 AM PDT 8:25 PM PDT
Nautical Twilight 4:47 AM PDT 9:06 PM PDT
Astronomical Twilight 4:02 AM PDT 9:51 PM PDT
Moon 11:53 PM PDT 8:17 AM PDT
Length of Visible Light 14h 57m
Length of Day
13h 51m
Tomorrow will be 3m 20s longer.
Waning Gibbous, 87% of the Moon is Illuminated
Today
Waning Gibbous
Apr 22
Last Quarter
Apr 29
New
May 6
First Quarter
May 14
Full

Today's Extremes

State Highs State Lows

Community

  • What's for Lunch?
    What's for Lunch?
  • SUNRISE THROUGH THE TREES.
    SUNRISE THROUGH THE TREES.
  • Dog Wood Blossoms
    Dog Wood Blossoms
  • Morning Light
    Morning Light
  • New Day
    New Day

WunderPhotos

Upload Photos

1,702,430 photos uploaded!

Nearby

Snow Depth

Station Depth Elevation
Moses Mountain 19 in 5300 ft
Salmon Meadows 2 in 4500 ft
Sentinel Butte 24 in 4920 ft
Pope Ridge 21 in 3540 ft
Rainy Pass 89 in 4780 ft

Coastal Water Temperatures

Place Temperature
No Stations Reporting

Earthquake Activity

City Distance Mag. Time & Date
Princeton, Canada 95 miles 2.5 2:14 PM PDT
2014-04-12
Minimum magnitude displayed is 2.5.

Nearby Weather Stations

Station Location Temp. Windchill Dew Point Humidity Wind Precip. Elev Updated Type
Ranch at Lost Creek, Tonasket, WA 48.4 °F 46 °F 20 °F 32% NNW  at  5.4 mph 0.00 in / hr 2313 ft 10:30 AM PDT Normal
Brewster, WA 55.5 °F - 22 °F 27% NW  at  6.0 mph 0.00 in / hr 1004 ft 10:36 AM PDT Rapid Fire
OKANOGAN / MALOTT, Okanogan, WA 57.7 °F - 9 °F 14% NW  at  7.4 mph 0.00 in / hr 910 ft 10:36 AM PDT Rapid Fire

Show More Stations Show Fewer Stations

What do you think?

We're not finished. Please let us know what you like, what you don't like, and what you are still missing.